Time;durP1;ratioP1;P1;durP2;ratioP2;P2;SDS_P1;SDS_P2;PMS_P1;PMS_P2;Temp;Humidity;BMP_temperature;BMP_pressure;BME280_temperature;BME280_humidity;BME280_pressure;Samples;Min_cycle;Max_cycle;Signal;HPM_P1;HPM_P2
2023/04/29 00:01:37;;;;;;;28.67;15.15;;;10.70;84.90;;;;;;5011788;28;20081;-71
2023/04/29 00:04:04;;;;;;;29.47;15.40;;;10.70;84.70;;;;;;5014675;28;20053;-71
2023/04/29 00:06:31;;;;;;;28.20;14.93;;;10.70;84.50;;;;;;5033194;28;20273;-71
2023/04/29 00:08:58;;;;;;;26.13;13.02;;;10.70;84.50;;;;;;5032933;28;20050;-71
2023/04/29 00:11:26;;;;;;;28.63;15.02;;;10.70;84.50;;;;;;5014644;28;20056;-71
2023/04/29 00:13:53;;;;;;;27.00;12.85;;;10.70;84.50;;;;;;5015178;28;20403;-71
2023/04/29 00:16:20;;;;;;;29.70;15.23;;;10.60;84.40;;;;;;5015050;28;20116;-71
2023/04/29 00:18:47;;;;;;;26.58;15.20;;;10.60;84.40;;;;;;5014595;28;20668;-71
2023/04/29 00:21:14;;;;;;;28.85;15.23;;;10.60;84.40;;;;;;5045421;28;20132;-71
2023/04/29 00:23:41;;;;;;;27.95;15.05;;;10.60;84.00;;;;;;5020317;28;20058;-71
2023/04/29 00:26:08;;;;;;;28.65;15.02;;;10.60;84.10;;;;;;5016047;28;20535;-71
2023/04/29 00:28:37;;;;;;;23.63;11.17;;;10.60;84.00;;;;;;5040005;28;20180;-71
2023/04/29 00:31:04;;;;;;;27.13;15.98;;;10.60;83.80;;;;;;5020200;28;20268;-71
2023/04/29 00:33:31;;;;;;;30.73;15.20;;;10.60;83.80;;;;;;5003228;28;20056;-71
2023/04/29 00:35:58;;;;;;;26.55;14.25;;;10.60;83.70;;;;;;4998046;28;20108;-71
2023/04/29 00:38:25;;;;;;;26.05;13.85;;;10.60;83.60;;;;;;5014589;28;20595;-71
2023/04/29 00:40:52;;;;;;;28.97;15.80;;;10.60;83.40;;;;;;4997130;28;20502;-71
2023/04/29 00:43:19;;;;;;;25.73;14.85;;;10.60;83.50;;;;;;5014704;28;20378;-71
2023/04/29 00:45:49;;;;;;;27.88;15.02;;;10.50;83.30;;;;;;5014978;28;20156;-71
2023/04/29 00:48:16;;;;;;;27.98;15.40;;;10.60;83.20;;;;;;4998202;28;20128;-71
2023/04/29 00:50:43;;;;;;;22.92;11.18;;;10.60;83.10;;;;;;5013959;28;20060;-71
2023/04/29 00:53:11;;;;;;;25.30;13.77;;;10.50;83.10;;;;;;5014130;28;20060;-71
2023/04/29 00:55:39;;;;;;;25.67;12.73;;;10.60;83.20;;;;;;5015095;28;20253;-71
2023/04/29 00:58:06;;;;;;;23.80;13.70;;;10.50;83.10;;;;;;5014629;28;20046;-71
2023/04/29 01:00:33;;;;;;;25.85;14.52;;;10.50;83.20;;;;;;5013727;28;20060;-71
2023/04/29 01:03:02;;;;;;;26.05;14.70;;;10.50;83.20;;;;;;5032428;28;20050;-71
2023/04/29 01:05:29;;;;;;;23.33;14.03;;;10.50;83.20;;;;;;5032175;28;20060;-71
2023/04/29 01:08:13;;;;;;;21.27;12.38;;;10.50;83.00;;;;;;5014085;28;20368;-71
2023/04/29 01:10:48;;;;;;;26.33;13.50;;;10.50;82.70;;;;;;5013528;28;20053;-71
2023/04/29 01:13:24;;;;;;;26.73;14.07;;;10.60;82.80;;;;;;5022419;28;20041;-71
2023/04/29 01:16:02;;;;;;;25.95;13.77;;;10.60;82.70;;;;;;5015014;28;20098;-71
2023/04/29 01:18:35;;;;;;;29.77;15.00;;;10.60;82.70;;;;;;4997757;28;20046;-71
2023/04/29 01:21:02;;;;;;;28.25;14.48;;;10.60;82.60;;;;;;5024622;28;20249;-71
2023/04/29 01:23:31;;;;;;;29.50;14.27;;;10.60;82.50;;;;;;5004344;28;20046;-71
2023/04/29 01:25:58;;;;;;;27.25;14.52;;;10.60;82.40;;;;;;4997643;28;20049;-72
2023/04/29 01:28:51;;;;;;;28.63;14.52;;;10.60;82.40;;;;;;5009205;28;20061;-71
2023/04/29 01:31:24;;;;;;;34.43;16.40;;;10.60;82.20;;;;;;5014118;28;20606;-71
2023/04/29 01:34:08;;;;;;;28.02;15.05;;;10.60;82.40;;;;;;5031988;28;20355;-71
2023/04/29 01:36:43;;;;;;;30.88;15.30;;;10.60;82.40;;;;;;4997618;28;20121;-71
2023/04/29 01:39:16;;;;;;;28.90;15.75;;;10.50;82.40;;;;;;5012923;28;20042;-71
2023/04/29 01:41:57;;;;;;;28.98;15.10;;;10.50;82.40;;;;;;5013421;28;20108;-71
2023/04/29 01:44:30;;;;;;;29.73;15.67;;;10.50;82.40;;;;;;5013858;28;20084;-71
2023/04/29 01:47:00;;;;;;;32.78;15.25;;;10.50;82.30;;;;;;5013711;28;20277;-71
2023/04/29 01:49:36;;;;;;;32.15;16.08;;;10.50;82.30;;;;;;5012961;28;20667;-71
2023/04/29 01:52:04;;;;;;;29.40;14.98;;;10.50;82.20;;;;;;5013447;28;20042;-71
2023/04/29 01:54:35;;;;;;;28.08;14.63;;;10.50;82.10;;;;;;5013843;28;20535;-71
2023/04/29 01:57:02;;;;;;;29.93;14.80;;;10.50;82.20;;;;;;5013427;28;20558;-71
2023/04/29 01:59:50;;;;;;;33.28;14.57;;;10.50;82.20;;;;;;5012786;28;20419;-71
2023/04/29 02:02:40;;;;;;;30.50;15.40;;;10.50;82.10;;;;;;5013505;28;20136;-71
2023/04/29 02:05:18;;;;;;;29.42;14.00;;;10.50;82.00;;;;;;5013497;28;20516;-71
2023/04/29 02:07:53;;;;;;;28.52;14.02;;;10.50;81.90;;;;;;5013470;28;20049;-71
2023/04/29 02:10:22;;;;;;;25.97;12.50;;;10.50;81.90;;;;;;4995950;28;20081;-71
2023/04/29 02:12:54;;;;;;;28.52;13.90;;;10.50;81.90;;;;;;5013717;28;20312;-71
2023/04/29 02:15:21;;;;;;;24.75;13.30;;;10.50;81.80;;;;;;4996977;28;20535;-71
2023/04/29 02:17:48;;;;;;;25.45;12.38;;;10.50;81.90;;;;;;5013122;28;20137;-71
2023/04/29 02:20:15;;;;;;;23.75;12.60;;;10.50;81.60;;;;;;5016958;28;20463;-71
2023/04/29 02:22:42;;;;;;;22.87;12.60;;;10.50;81.70;;;;;;5029838;28;20074;-71
2023/04/29 02:25:11;;;;;;;24.50;12.95;;;10.50;81.60;;;;;;5030325;28;20296;-71
2023/04/29 02:27:39;;;;;;;26.58;12.18;;;10.50;81.50;;;;;;5028515;28;20042;-71
2023/04/29 02:30:07;;;;;;;22.65;12.13;;;10.40;81.60;;;;;;5028738;28;20049;-71
2023/04/29 02:32:34;;;;;;;20.85;11.93;;;10.50;81.60;;;;;;5029642;28;20161;-71
2023/04/29 02:35:01;;;;;;;20.67;9.27;;;10.40;81.40;;;;;;5029597;28;20049;-71
2023/04/29 02:37:28;;;;;;;22.98;11.27;;;10.40;81.30;;;;;;5012685;28;20264;-71
2023/04/29 02:39:56;;;;;;;21.33;11.00;;;10.40;81.40;;;;;;5028634;28;20050;-71
2023/04/29 02:42:23;;;;;;;21.27;11.63;;;10.40;81.30;;;;;;5029443;28;20076;-71
2023/04/29 02:44:51;;;;;;;22.25;10.43;;;10.40;81.30;;;;;;5029200;28;20128;-71
2023/04/29 02:47:28;;;;;;;19.38;10.85;;;10.40;81.30;;;;;;5148006;27;20379;-71
2023/04/29 02:49:55;;;;;;;22.63;11.20;;;10.30;81.50;;;;;;5129181;27;20047;-72
2023/04/29 02:52:22;;;;;;;19.70;11.35;;;10.30;81.50;;;;;;5129785;27;20047;-71
2023/04/29 02:54:49;;;;;;;20.00;10.55;;;10.30;81.40;;;;;;5147184;27;20048;-71
2023/04/29 02:57:16;;;;;;;22.70;11.32;;;10.30;81.40;;;;;;5147078;27;20058;-71
2023/04/29 02:59:43;;;;;;;20.83;9.75;;;10.30;81.50;;;;;;5148107;27;20118;-71
2023/04/29 03:02:10;;;;;;;19.77;10.37;;;10.30;81.30;;;;;;5147288;27;20058;-71
2023/04/29 03:04:38;;;;;;;22.92;11.02;;;10.30;81.40;;;;;;5129348;27;20340;-71
2023/04/29 03:07:06;;;;;;;22.70;10.73;;;10.30;81.40;;;;;;5129430;27;20047;-71
2023/04/29 03:09:34;;;;;;;21.25;10.27;;;10.30;81.30;;;;;;5129200;27;20114;-71
2023/04/29 03:12:02;;;;;;;22.40;11.15;;;10.30;81.20;;;;;;5147165;27;20154;-71
2023/04/29 03:14:30;;;;;;;20.97;10.93;;;10.30;81.30;;;;;;5148377;27;20050;-71
2023/04/29 03:16:58;;;;;;;20.00;10.02;;;10.30;81.30;;;;;;5146758;27;20039;-71
2023/04/29 03:19:25;;;;;;;22.88;12.00;;;10.30;81.20;;;;;;5146275;27;20100;-71
2023/04/29 03:21:53;;;;;;;23.00;11.00;;;10.30;81.20;;;;;;5147122;27;20128;-71
2023/04/29 03:24:20;;;;;;;22.40;11.63;;;10.30;81.30;;;;;;5108962;27;20107;-71
2023/04/29 03:26:47;;;;;;;22.23;10.37;;;10.20;81.10;;;;;;5109016;27;20047;-71
2023/04/29 03:29:14;;;;;;;21.55;11.55;;;10.20;81.20;;;;;;5141687;27;20394;-71
2023/04/29 03:31:41;;;;;;;21.25;10.82;;;10.20;81.10;;;;;;5129461;27;20050;-71
2023/04/29 03:34:09;;;;;;;23.33;11.32;;;10.20;81.10;;;;;;5147215;27;20585;-71
2023/04/29 03:36:40;;;;;;;21.35;8.90;;;10.20;81.10;;;;;;5129396;27;20492;-71
2023/04/29 03:39:10;;;;;;;21.57;11.20;;;10.20;81.20;;;;;;5146190;27;20047;-71
2023/04/29 03:41:37;;;;;;;22.80;11.82;;;10.20;81.30;;;;;;5128923;27;20488;-71
2023/04/29 03:44:05;;;;;;;21.60;10.95;;;10.20;81.40;;;;;;5147492;27;20427;-71
2023/04/29 03:46:31;;;;;;;26.15;11.45;;;10.10;81.40;;;;;;5145488;27;20471;-71
2023/04/29 03:48:58;;;;;;;19.30;10.88;;;10.10;81.30;;;;;;5145189;27;20509;-71
2023/04/29 03:51:26;;;;;;;24.27;12.13;;;10.10;81.20;;;;;;5146201;27;20047;-71
2023/04/29 03:54:00;;;;;;;20.75;10.75;;;10.10;81.30;;;;;;5128549;27;20180;-71
2023/04/29 03:56:29;;;;;;;21.98;11.90;;;10.10;81.20;;;;;;5146112;27;20047;-71
2023/04/29 03:58:56;;;;;;;24.35;12.13;;;10.10;81.40;;;;;;5113854;27;20414;-71
2023/04/29 04:01:25;;;;;;;24.23;11.15;;;10.10;81.20;;;;;;5114947;27;20476;-71
2023/04/29 04:03:52;;;;;;;24.37;12.20;;;10.10;81.20;;;;;;5115405;27;20044;-71
2023/04/29 04:06:19;;;;;;;23.98;11.15;;;10.10;81.30;;;;;;5114723;27;20122;-71
2023/04/29 04:08:47;;;;;;;22.90;12.43;;;10.10;81.20;;;;;;5131838;27;20061;-71
2023/04/29 04:11:17;;;;;;;25.85;12.02;;;10.10;81.20;;;;;;5131934;27;20070;-71
2023/04/29 04:13:50;;;;;;;23.63;11.70;;;10.10;81.20;;;;;;5132363;27;20048;-71
2023/04/29 04:16:19;;;;;;;22.70;11.70;;;10.10;81.20;;;;;;5131802;27;20059;-71
2023/04/29 04:18:46;;;;;;;22.45;11.32;;;10.10;81.20;;;;;;5114572;27;20125;-71
2023/04/29 04:21:13;;;;;;;21.63;9.02;;;10.10;81.00;;;;;;5113917;27;20474;-71
2023/04/29 04:23:43;;;;;;;26.75;10.48;;;10.10;80.90;;;;;;5112958;27;20126;-71
2023/04/29 04:26:13;;;;;;;22.25;9.45;;;10.10;81.00;;;;;;5126671;27;20157;-71
2023/04/29 04:28:50;;;;;;;21.30;10.00;;;10.10;80.90;;;;;;5110737;28;20054;-71
2023/04/29 04:31:55;;;;;;;21.95;10.85;;;10.10;81.00;;;;;;5104665;28;20074;-71
2023/04/29 04:34:23;;;;;;;22.45;10.00;;;10.00;80.90;;;;;;5093982;28;20052;-71
2023/04/29 04:36:52;;;;;;;25.60;10.68;;;10.00;80.90;;;;;;5111500;27;20047;-71
2023/04/29 04:39:19;;;;;;;21.20;9.98;;;10.00;80.90;;;;;;5093528;28;20039;-71
2023/04/29 04:41:46;;;;;;;23.77;11.10;;;10.00;81.00;;;;;;5111159;28;20058;-71
2023/04/29 04:44:15;;;;;;;21.13;9.82;;;10.00;81.00;;;;;;5104757;27;20131;-71
2023/04/29 04:46:53;;;;;;;22.38;10.15;;;10.00;80.90;;;;;;5130957;27;20120;-71
2023/04/29 04:49:55;;;;;;;22.80;10.32;;;10.00;80.90;;;;;;5119785;27;20048;-71
2023/04/29 04:52:22;;;;;;;21.10;9.60;;;10.00;81.00;;;;;;5113996;27;20043;-71
2023/04/29 04:55:00;;;;;;;25.20;9.97;;;10.00;80.90;;;;;;5114055;27;20051;-71
2023/04/29 04:57:30;;;;;;;20.85;9.30;;;10.00;80.90;;;;;;5114082;27;20390;-71
2023/04/29 05:00:03;;;;;;;22.15;9.98;;;10.00;80.90;;;;;;5127656;27;20055;-71
2023/04/29 05:02:30;;;;;;;19.45;8.40;;;10.00;81.10;;;;;;5110988;28;20056;-71
2023/04/29 05:04:57;;;;;;;18.73;9.35;;;10.00;80.90;;;;;;5111190;28;20098;-71
2023/04/29 05:07:28;;;;;;;18.80;9.47;;;10.00;81.00;;;;;;5093775;28;20530;-71
2023/04/29 05:10:05;;;;;;;22.77;10.68;;;10.00;80.90;;;;;;5092004;28;20591;-71
2023/04/29 05:12:35;;;;;;;21.33;9.52;;;10.00;81.00;;;;;;5111187;28;20044;-71
2023/04/29 05:15:05;;;;;;;18.08;9.15;;;10.00;81.10;;;;;;5093694;28;20063;-71
2023/04/29 05:17:33;;;;;;;21.50;8.68;;;10.00;81.10;;;;;;5094050;28;20052;-71
2023/04/29 05:20:01;;;;;;;21.63;8.90;;;10.00;80.90;;;;;;5095374;27;20040;-71
2023/04/29 05:22:29;;;;;;;21.83;9.60;;;10.00;81.00;;;;;;5131080;27;20816;-71
2023/04/29 05:25:01;;;;;;;21.42;9.40;;;10.00;81.10;;;;;;5131407;27;20039;-71
2023/04/29 05:27:28;;;;;;;20.88;9.52;;;10.00;81.00;;;;;;5113844;27;20047;-71
2023/04/29 05:29:56;;;;;;;19.50;9.43;;;10.00;81.10;;;;;;5130577;27;21046;-71
2023/04/29 05:32:25;;;;;;;17.77;8.73;;;10.00;81.10;;;;;;5113001;27;20039;-71
2023/04/29 05:34:52;;;;;;;20.30;9.82;;;10.00;81.20;;;;;;5130981;27;20044;-71
2023/04/29 05:37:19;;;;;;;19.42;8.93;;;10.00;81.10;;;;;;5113445;27;20051;-71
2023/04/29 05:40:03;;;;;;;21.17;9.55;;;10.00;81.20;;;;;;5130262;27;20051;-71
2023/04/29 05:42:31;;;;;;;18.55;8.55;;;10.00;81.20;;;;;;5098106;28;20051;-71
2023/04/29 05:44:58;;;;;;;17.80;8.80;;;10.00;81.20;;;;;;5092647;28;20044;-71
2023/04/29 05:47:27;;;;;;;19.00;8.80;;;10.00;81.40;;;;;;5097207;27;20052;-71
2023/04/29 05:49:54;;;;;;;20.25;8.15;;;10.00;81.10;;;;;;5146423;27;20163;-71
2023/04/29 05:52:21;;;;;;;20.98;8.73;;;10.00;81.20;;;;;;5130413;27;20065;-70
2023/04/29 05:54:52;;;;;;;20.15;8.73;;;10.00;81.30;;;;;;5129561;27;20135;-71
2023/04/29 05:57:19;;;;;;;19.97;9.03;;;10.00;81.20;;;;;;5155861;27;20047;-71
2023/04/29 05:59:46;;;;;;;16.50;8.30;;;10.10;81.30;;;;;;5112077;27;20124;-71
2023/04/29 06:02:14;;;;;;;17.77;8.50;;;10.10;81.30;;;;;;5128147;27;20047;-71
2023/04/29 06:04:46;;;;;;;17.55;8.23;;;10.10;81.20;;;;;;5132683;27;20040;-71
2023/04/29 06:07:28;;;;;;;18.25;7.80;;;10.10;81.30;;;;;;5114340;27;20052;-71
2023/04/29 06:10:00;;;;;;;18.47;8.20;;;10.10;81.30;;;;;;5123009;27;20147;-71
2023/04/29 06:12:29;;;;;;;15.23;7.90;;;10.10;81.30;;;;;;5108093;27;20138;-71
2023/04/29 06:14:58;;;;;;;19.02;8.70;;;10.10;81.20;;;;;;5110008;27;20551;-71
2023/04/29 06:17:28;;;;;;;16.60;8.05;;;10.10;81.20;;;;;;5106976;27;20074;-71
2023/04/29 06:19:56;;;;;;;18.48;8.25;;;10.10;81.30;;;;;;5123373;27;20052;-71
2023/04/29 06:22:24;;;;;;;16.23;7.50;;;10.10;81.40;;;;;;5124057;27;20051;-71
2023/04/29 06:24:54;;;;;;;16.52;7.80;;;10.20;81.30;;;;;;5127744;27;20762;-70
2023/04/29 06:27:28;;;;;;;18.67;8.13;;;10.20;81.40;;;;;;5109886;27;20051;-71
2023/04/29 06:29:55;;;;;;;19.83;8.18;;;10.20;81.40;;;;;;5109613;27;20043;-71
2023/04/29 06:32:22;;;;;;;18.52;8.07;;;10.20;81.50;;;;;;5110548;27;20412;-71
2023/04/29 06:34:50;;;;;;;17.80;7.93;;;10.20;81.50;;;;;;5110547;27;20046;-71
2023/04/29 06:37:28;;;;;;;18.75;8.02;;;10.20;81.50;;;;;;5128547;27;20509;-72
2023/04/29 06:40:12;;;;;;;15.32;7.82;;;10.20;81.60;;;;;;5135640;27;20113;-71
2023/04/29 06:43:01;;;;;;;15.50;7.60;;;10.20;81.60;;;;;;5127812;27;21685;-71
2023/04/29 06:45:41;;;;;;;19.13;7.72;;;10.20;81.60;;;;;;5115956;27;20500;-71
2023/04/29 06:48:17;;;;;;;14.63;7.60;;;10.30;81.50;;;;;;5133164;27;20497;-71
2023/04/29 06:50:51;;;;;;;17.35;7.40;;;10.30;81.60;;;;;;5109543;27;20069;-71
2023/04/29 06:53:19;;;;;;;19.58;8.05;;;10.30;81.80;;;;;;5125699;27;20138;-71
2023/04/29 06:55:46;;;;;;;15.95;7.10;;;10.30;81.70;;;;;;5135706;27;20051;-71
2023/04/29 06:58:13;;;;;;;18.17;7.47;;;10.30;81.60;;;;;;5112018;27;20505;-71
2023/04/29 07:00:40;;;;;;;17.97;6.83;;;10.30;81.60;;;;;;5131824;27;20474;-71
2023/04/29 07:03:08;;;;;;;17.58;8.00;;;10.40;81.60;;;;;;5132604;27;20097;-71
2023/04/29 07:05:38;;;;;;;18.35;7.65;;;10.40;81.60;;;;;;5128066;27;20048;-71
2023/04/29 07:08:05;;;;;;;18.48;7.60;;;10.40;81.60;;;;;;5106686;27;20055;-71
2023/04/29 07:10:33;;;;;;;15.48;7.50;;;10.40;81.50;;;;;;5129107;27;20075;-71
2023/04/29 07:13:00;;;;;;;17.17;7.60;;;10.40;81.60;;;;;;5128285;27;20054;-71
2023/04/29 07:15:28;;;;;;;14.15;6.88;;;10.50;81.40;;;;;;5128756;27;20044;-71
2023/04/29 07:18:12;;;;;;;17.23;7.28;;;10.50;81.40;;;;;;5113251;27;20048;-71
2023/04/29 07:20:40;;;;;;;15.45;7.32;;;10.50;81.30;;;;;;5108972;27;20927;-71
2023/04/29 07:23:07;;;;;;;14.15;7.20;;;10.50;81.20;;;;;;5111311;27;20044;-71
2023/04/29 07:25:35;;;;;;;12.93;6.80;;;10.60;81.20;;;;;;5110812;27;20040;-71
2023/04/29 07:28:04;;;;;;;13.70;6.80;;;10.60;81.30;;;;;;5110969;27;20516;-71
2023/04/29 07:30:32;;;;;;;15.45;7.43;;;10.60;81.20;;;;;;5149905;27;20052;-71
2023/04/29 07:32:59;;;;;;;17.23;6.75;;;10.60;81.40;;;;;;5129605;27;20136;-72
2023/04/29 07:35:26;;;;;;;12.15;6.10;;;10.70;81.20;;;;;;5113951;27;20044;-71
2023/04/29 07:37:53;;;;;;;13.33;7.00;;;10.70;81.30;;;;;;5131530;27;20497;-71
2023/04/29 07:40:20;;;;;;;14.52;6.85;;;10.80;81.30;;;;;;5126126;27;20577;-71
2023/04/29 07:42:50;;;;;;;12.10;6.60;;;10.80;81.20;;;;;;5113931;27;20046;-71
2023/04/29 07:45:17;;;;;;;14.13;6.85;;;10.80;81.00;;;;;;5132169;27;20043;-71
2023/04/29 07:47:44;;;;;;;12.85;6.38;;;10.80;80.90;;;;;;5128157;27;20668;-71
2023/04/29 07:50:12;;;;;;;13.40;6.80;;;10.90;80.90;;;;;;5114333;27;20556;-71
2023/04/29 07:52:39;;;;;;;13.73;6.28;;;10.90;80.90;;;;;;5130754;27;20048;-71
2023/04/29 07:55:07;;;;;;;14.38;7.00;;;10.90;80.80;;;;;;5149715;27;20044;-71
2023/04/29 07:57:34;;;;;;;13.98;6.78;;;11.00;80.70;;;;;;5136762;27;20090;-71
2023/04/29 08:00:03;;;;;;;14.90;6.82;;;11.00;80.90;;;;;;5128180;27;20059;-71
2023/04/29 08:02:42;;;;;;;15.27;7.17;;;11.10;80.90;;;;;;5129238;27;20048;-71
2023/04/29 08:05:12;;;;;;;13.48;6.05;;;11.10;80.60;;;;;;5111710;27;21184;-70
2023/04/29 08:07:39;;;;;;;16.83;6.78;;;11.10;80.30;;;;;;5113968;27;20155;-71
2023/04/29 08:10:07;;;;;;;12.18;6.40;;;11.10;80.40;;;;;;5146392;27;20051;-71
2023/04/29 08:12:37;;;;;;;14.10;6.20;;;11.10;80.30;;;;;;5137783;27;20048;-71
2023/04/29 08:15:07;;;;;;;13.07;6.30;;;11.20;80.00;;;;;;5113658;27;20039;-71
2023/04/29 08:17:34;;;;;;;13.02;5.85;;;11.20;80.00;;;;;;5109844;27;20406;-71
2023/04/29 08:20:01;;;;;;;12.77;6.28;;;11.30;80.00;;;;;;5130722;27;20454;-71
2023/04/29 08:22:28;;;;;;;12.23;6.25;;;11.30;80.10;;;;;;5123845;27;20048;-71
2023/04/29 08:24:56;;;;;;;16.25;6.68;;;11.40;80.10;;;;;;5129360;27;20052;-71
2023/04/29 08:27:23;;;;;;;13.87;6.50;;;11.40;80.20;;;;;;5129634;27;20055;-70
2023/04/29 08:29:50;;;;;;;14.88;6.53;;;11.40;80.10;;;;;;5130942;27;20883;-71
2023/04/29 08:32:19;;;;;;;12.57;6.18;;;11.50;80.10;;;;;;5131772;27;20054;-70
2023/04/29 08:34:46;;;;;;;13.95;6.50;;;11.50;79.70;;;;;;5111890;27;20056;-71
2023/04/29 08:37:14;;;;;;;13.75;7.05;;;11.50;79.80;;;;;;5128623;27;20051;-71
2023/04/29 08:39:42;;;;;;;12.70;6.40;;;11.50;79.70;;;;;;5130128;27;20044;-71
2023/04/29 08:42:09;;;;;;;11.63;7.00;;;11.60;79.80;;;;;;5125708;27;20060;-71
2023/04/29 08:44:36;;;;;;;12.90;6.82;;;11.70;79.80;;;;;;5159065;27;20043;-71
2023/04/29 08:47:05;;;;;;;13.07;6.85;;;11.70;79.90;;;;;;5130226;27;20058;-70
2023/04/29 08:49:33;;;;;;;14.35;6.80;;;11.70;79.70;;;;;;5112127;27;20040;-70
2023/04/29 08:52:01;;;;;;;11.33;6.47;;;11.80;79.70;;;;;;5135016;27;20057;-71
2023/04/29 08:54:28;;;;;;;13.35;5.93;;;11.90;79.80;;;;;;5132573;27;20051;-71
2023/04/29 08:56:58;;;;;;;12.43;6.55;;;11.90;79.80;;;;;;5131227;27;20048;-71
2023/04/29 08:59:26;;;;;;;11.27;5.82;;;11.90;79.70;;;;;;5129487;27;20054;-71
2023/04/29 09:01:56;;;;;;;13.43;6.43;;;12.00;79.80;;;;;;5127879;27;20044;-71
2023/04/29 09:04:33;;;;;;;10.83;5.77;;;12.00;79.70;;;;;;5129654;27;20078;-71
2023/04/29 09:07:04;;;;;;;9.70;4.78;;;12.10;79.60;;;;;;5129865;27;20077;-71
2023/04/29 09:09:32;;;;;;;12.52;5.63;;;12.10;77.60;;;;;;5126881;27;20047;-71
2023/04/29 09:11:59;;;;;;;10.68;5.82;;;12.20;76.20;;;;;;5127906;27;20048;-71
2023/04/29 09:14:26;;;;;;;11.45;5.30;;;12.20;75.20;;;;;;5129255;27;20117;-71
2023/04/29 09:16:53;;;;;;;10.30;5.27;;;12.20;76.20;;;;;;5156575;27;20135;-70
2023/04/29 09:19:31;;;;;;;10.75;5.22;;;12.20;76.30;;;;;;5129159;27;20058;-71
2023/04/29 09:21:59;;;;;;;11.48;5.82;;;12.30;76.70;;;;;;5112759;27;20095;-70
2023/04/29 09:24:28;;;;;;;9.20;4.95;;;12.30;77.00;;;;;;5126315;27;20132;-71
2023/04/29 09:26:55;;;;;;;10.05;5.38;;;12.30;77.00;;;;;;5128674;27;20055;-71
2023/04/29 09:29:22;;;;;;;13.60;5.10;;;12.40;77.20;;;;;;5127893;27;20154;-71
2023/04/29 09:31:52;;;;;;;9.82;5.07;;;12.40;77.20;;;;;;5127762;27;20522;-70
2023/04/29 09:34:31;;;;;;;10.45;5.40;;;12.50;77.50;;;;;;5123481;27;20051;-71
2023/04/29 09:36:58;;;;;;;11.50;4.85;;;12.50;77.40;;;;;;5123394;27;20921;-71
2023/04/29 09:39:26;;;;;;;9.50;4.53;;;12.50;77.40;;;;;;5106718;27;20073;-71
2023/04/29 09:42:01;;;;;;;8.53;3.87;;;12.50;76.90;;;;;;5118007;27;20517;-71
2023/04/29 09:44:30;;;;;;;9.80;3.90;;;12.60;75.90;;;;;;5128615;27;20059;-71
2023/04/29 09:47:01;;;;;;;10.32;4.40;;;12.70;74.40;;;;;;5128658;27;20516;-71
2023/04/29 09:49:29;;;;;;;9.40;4.53;;;12.70;74.60;;;;;;5126923;27;20062;-71
2023/04/29 09:51:58;;;;;;;11.73;5.22;;;12.70;74.00;;;;;;5131161;27;20047;-72
2023/04/29 09:54:28;;;;;;;9.90;4.53;;;12.80;75.00;;;;;;5141027;27;20132;-71
2023/04/29 09:56:56;;;;;;;9.32;4.13;;;12.80;75.40;;;;;;5119597;27;20067;-71
2023/04/29 09:59:24;;;;;;;9.80;4.78;;;12.90;75.30;;;;;;5109783;28;20051;-72
2023/04/29 10:01:52;;;;;;;8.98;4.32;;;13.00;75.10;;;;;;5111307;27;20549;-71
2023/04/29 10:04:20;;;;;;;10.27;4.63;;;13.00;74.90;;;;;;5120368;27;20056;-71
2023/04/29 10:06:50;;;;;;;9.13;4.50;;;13.00;75.10;;;;;;5130877;27;20107;-72
2023/04/29 10:09:18;;;;;;;9.13;4.95;;;13.10;75.40;;;;;;5126455;27;20047;-72
2023/04/29 10:11:49;;;;;;;11.02;5.78;;;13.10;75.10;;;;;;5149093;27;20048;-72
2023/04/29 10:14:17;;;;;;;9.25;4.55;;;13.20;75.40;;;;;;5105200;27;20129;-72
2023/04/29 10:16:49;;;;;;;11.13;4.65;;;13.30;75.80;;;;;;5104804;27;20131;-72
2023/04/29 10:19:24;;;;;;;10.47;5.10;;;13.30;75.50;;;;;;5124476;27;20123;-72
2023/04/29 10:21:55;;;;;;;9.40;4.80;;;13.40;75.30;;;;;;5129008;27;20075;-72
2023/04/29 10:24:23;;;;;;;11.90;4.80;;;13.50;75.00;;;;;;5119503;27;20044;-72
2023/04/29 10:26:53;;;;;;;8.90;4.00;;;13.50;74.70;;;;;;5125166;27;20052;-72
2023/04/29 10:29:22;;;;;;;9.55;4.75;;;13.60;73.20;;;;;;5128112;27;20057;-72
2023/04/29 10:31:50;;;;;;;8.87;4.90;;;13.60;73.50;;;;;;5130908;27;20059;-72
2023/04/29 10:34:18;;;;;;;9.93;5.07;;;13.70;73.60;;;;;;5129354;27;20052;-72
2023/04/29 10:36:46;;;;;;;10.13;4.88;;;13.80;73.50;;;;;;5129424;27;20074;-72
2023/04/29 10:39:21;;;;;;;7.97;4.40;;;13.90;73.60;;;;;;5146906;27;20158;-72
2023/04/29 10:41:49;;;;;;;10.40;5.35;;;13.90;72.90;;;;;;5130251;27;20809;-72
2023/04/29 10:44:18;;;;;;;9.23;4.87;;;14.00;72.50;;;;;;5122777;27;20047;-72
2023/04/29 10:46:45;;;;;;;9.02;4.78;;;14.10;72.50;;;;;;5125558;27;20044;-72
2023/04/29 10:49:12;;;;;;;9.57;5.05;;;14.10;72.70;;;;;;5125456;27;20146;-72
2023/04/29 10:51:41;;;;;;;9.60;3.65;;;14.20;72.30;;;;;;5128832;27;20055;-72
2023/04/29 10:54:10;;;;;;;7.82;3.35;;;14.20;72.30;;;;;;5129138;27;20140;-72
2023/04/29 10:56:42;;;;;;;7.83;4.00;;;14.30;70.90;;;;;;5127421;27;20054;-72
2023/04/29 10:59:12;;;;;;;7.47;3.65;;;14.40;70.40;;;;;;5121278;27;20044;-71
2023/04/29 11:01:45;;;;;;;7.50;3.58;;;14.40;70.20;;;;;;5133741;27;20051;-72
2023/04/29 11:04:13;;;;;;;7.68;3.90;;;14.50;70.10;;;;;;5064804;27;20165;-72
2023/04/29 11:07:26;;;;;;;8.10;3.60;;;14.60;69.40;;;;;;5064142;28;20053;-72
2023/04/29 11:09:53;;;;;;;9.20;3.80;;;14.60;71.10;;;;;;5056049;28;20055;-73
2023/04/29 11:12:20;;;;;;;7.82;3.17;;;14.70;69.10;;;;;;5058169;28;20064;-72
2023/04/29 11:14:50;;;;;;;8.90;3.92;;;14.80;69.00;;;;;;5061290;28;20162;-72
2023/04/29 11:17:19;;;;;;;7.07;3.40;;;14.80;69.60;;;;;;5062162;28;20050;-71
2023/04/29 11:19:49;;;;;;;7.70;3.38;;;14.90;69.50;;;;;;5061581;28;20053;-72
2023/04/29 11:22:26;;;;;;;8.33;3.90;;;15.00;68.80;;;;;;5061534;28;20056;-72
2023/04/29 11:24:55;;;;;;;9.38;3.70;;;15.00;69.70;;;;;;5060767;28;20546;-72
2023/04/29 11:27:25;;;;;;;8.93;3.10;;;15.10;69.50;;;;;;5057255;28;20269;-72
2023/04/29 11:29:57;;;;;;;10.48;3.42;;;15.20;70.30;;;;;;5058721;28;20061;-72
2023/04/29 11:32:26;;;;;;;8.57;3.45;;;15.20;64.40;;;;;;5068905;28;20573;-72
2023/04/29 11:34:53;;;;;;;9.37;3.53;;;15.20;63.20;;;;;;5059646;28;20545;-72
2023/04/29 11:37:22;;;;;;;6.88;3.83;;;15.20;62.70;;;;;;5066972;28;20156;-72
2023/04/29 11:39:51;;;;;;;8.40;3.42;;;15.30;62.50;;;;;;5062680;28;20132;-72
2023/04/29 11:42:23;;;;;;;5.68;2.80;;;15.30;64.20;;;;;;5061290;28;20587;-72
2023/04/29 11:44:55;;;;;;;7.40;3.33;;;15.30;65.10;;;;;;5057505;28;20046;-72
2023/04/29 11:47:28;;;;;;;7.33;3.80;;;15.40;65.40;;;;;;5065135;28;20052;-72
2023/04/29 11:50:02;;;;;;;7.22;3.35;;;15.50;67.60;;;;;;5071884;28;20049;-72
2023/04/29 11:52:30;;;;;;;6.10;3.40;;;15.50;64.60;;;;;;5072686;28;20053;-72
2023/04/29 11:54:58;;;;;;;6.90;3.10;;;15.60;61.30;;;;;;5071089;28;20103;-72
2023/04/29 11:57:26;;;;;;;6.95;3.10;;;15.60;61.40;;;;;;5072730;28;20083;-72
2023/04/29 11:59:54;;;;;;;6.53;2.80;;;15.60;62.70;;;;;;5070904;28;20123;-72
2023/04/29 12:02:22;;;;;;;7.72;3.20;;;15.60;63.50;;;;;;5071317;28;20577;-72
2023/04/29 12:04:50;;;;;;;8.45;3.40;;;15.60;64.00;;;;;;5064590;28;20049;-72
2023/04/29 12:07:17;;;;;;;6.55;2.65;;;15.80;65.90;;;;;;5065442;28;20488;-71
2023/04/29 12:09:45;;;;;;;7.18;3.05;;;15.80;66.10;;;;;;5069932;28;20053;-72
2023/04/29 12:12:14;;;;;;;5.87;2.90;;;15.90;64.90;;;;;;5062792;28;20530;-72
2023/04/29 12:14:42;;;;;;;5.28;2.47;;;16.00;65.30;;;;;;5087350;28;20149;-72
2023/04/29 12:17:10;;;;;;;7.13;3.35;;;16.10;65.10;;;;;;5072209;28;20102;-72
2023/04/29 12:19:40;;;;;;;7.22;2.85;;;16.10;65.00;;;;;;5064490;28;20053;-72
2023/04/29 12:22:08;;;;;;;6.32;3.13;;;16.30;67.60;;;;;;5070385;28;20578;-72
2023/04/29 12:24:37;;;;;;;7.30;3.40;;;16.40;65.50;;;;;;5064313;28;20498;-72
2023/04/29 12:27:04;;;;;;;8.40;2.97;;;16.50;64.60;;;;;;5059893;28;20052;-72
2023/04/29 12:29:31;;;;;;;6.32;3.15;;;16.60;65.00;;;;;;5058692;28;20053;-72
2023/04/29 12:31:59;;;;;;;6.53;3.15;;;16.60;63.50;;;;;;5067386;28;20045;-72
2023/04/29 12:34:28;;;;;;;6.75;3.03;;;16.70;64.20;;;;;;5068386;28;20080;-72
2023/04/29 12:36:56;;;;;;;5.80;2.97;;;16.80;63.60;;;;;;5068498;28;20080;-72
2023/04/29 12:39:25;;;;;;;7.72;2.97;;;16.80;63.30;;;;;;5083420;28;20045;-72
2023/04/29 12:41:57;;;;;;;10.15;3.35;;;16.90;63.50;;;;;;5049698;28;20060;-72
2023/04/29 12:44:24;;;;;;;7.63;2.90;;;17.00;64.00;;;;;;5064722;28;20060;-72
2023/04/29 12:46:52;;;;;;;7.43;2.80;;;17.00;63.20;;;;;;5059928;28;20095;-72
2023/04/29 12:49:20;;;;;;;5.07;2.13;;;17.10;62.20;;;;;;5067889;28;20176;-73